createdAt,value
2022-10-19T00:01:58.693Z,11.57
2022-10-19T00:06:02.162Z,9.55
2022-10-19T00:10:05.418Z,11.07
2022-10-19T00:14:09.268Z,10.45
2022-10-19T00:18:13.323Z,8.23
2022-10-19T00:22:16.039Z,11.20
2022-10-19T00:26:18.772Z,10.48
2022-10-19T00:30:21.480Z,9.43
2022-10-19T00:34:25.840Z,17.05
2022-10-19T00:38:28.808Z,12.80
2022-10-19T00:42:31.676Z,7.75
2022-10-19T00:46:37.227Z,13.57
2022-10-19T00:50:41.735Z,13.50
2022-10-19T00:54:46.682Z,14.38
2022-10-19T00:58:49.453Z,8.07
2022-10-19T01:02:52.402Z,10.38
2022-10-19T01:06:57.658Z,8.07
2022-10-19T01:11:14.172Z,12.13
2022-10-19T01:15:27.907Z,7.47
2022-10-19T01:20:06.521Z,8.05
2022-10-19T01:24:37.016Z,8.35
2022-10-19T01:28:48.386Z,7.50
2022-10-19T01:33:14.727Z,9.30
2022-10-19T01:37:21.279Z,8.57
2022-10-19T01:45:37.818Z,7.88
2022-10-19T01:49:45.405Z,10.93
2022-10-19T01:53:52.055Z,11.48
2022-10-19T01:57:59.282Z,11.40
2022-10-19T02:02:05.175Z,9.38
2022-10-19T02:06:12.380Z,8.25
2022-10-19T02:14:26.695Z,8.88
2022-10-19T02:22:35.200Z,11.27
2022-10-19T02:26:38.799Z,8.63
2022-10-19T02:30:42.338Z,10.63
2022-10-19T02:34:45.185Z,10.60
2022-10-19T02:38:49.289Z,17.42
2022-10-19T02:42:56.388Z,12.52
2022-10-19T02:47:04.335Z,23.27
2022-10-19T02:51:07.187Z,17.15
2022-10-19T02:55:11.415Z,15.27
2022-10-19T02:59:14.131Z,15.93
2022-10-19T03:03:16.825Z,14.23
2022-10-19T03:07:21.762Z,12.80
2022-10-19T03:11:25.815Z,19.08
2022-10-19T03:15:29.893Z,20.75
2022-10-19T03:19:32.946Z,17.20
2022-10-19T03:23:36.183Z,13.75
2022-10-19T03:27:40.239Z,13.82
2022-10-19T03:31:43.173Z,11.00
2022-10-19T03:35:45.895Z,17.33
2022-10-19T03:39:48.615Z,14.82
2022-10-19T03:43:52.751Z,9.77
2022-10-19T03:47:55.546Z,12.73
2022-10-19T03:51:58.282Z,10.23
2022-10-19T03:56:05.741Z,13.73
2022-10-19T04:00:11.872Z,9.07
2022-10-19T04:04:19.346Z,7.80
2022-10-19T04:08:22.058Z,10.30
2022-10-19T04:12:24.795Z,12.13
2022-10-19T04:16:30.806Z,13.88
2022-10-19T04:20:33.825Z,10.18
2022-10-19T04:24:36.496Z,12.75
2022-10-19T04:28:39.215Z,19.23
2022-10-19T04:32:43.294Z,15.23
2022-10-19T04:36:46.345Z,14.00
2022-10-19T04:40:49.014Z,16.25
2022-10-19T04:44:51.701Z,14.90
2022-10-19T04:48:56.855Z,14.32
2022-10-19T04:52:59.615Z,13.65
2022-10-19T04:57:02.340Z,10.23
2022-10-19T05:01:09.515Z,14.27
2022-10-19T05:05:14.266Z,10.43
2022-10-19T05:09:17.036Z,15.40
2022-10-19T05:13:19.713Z,14.85
2022-10-19T05:17:22.454Z,14.60
2022-10-19T05:21:28.723Z,19.88
2022-10-19T05:25:31.427Z,14.23
2022-10-19T05:29:34.539Z,14.88
2022-10-19T05:33:37.826Z,17.60
2022-10-19T05:37:41.972Z,17.50
2022-10-19T05:41:45.634Z,20.00
2022-10-19T05:45:48.358Z,19.45
2022-10-19T05:49:51.030Z,19.92
2022-10-19T05:53:56.294Z,19.63
2022-10-19T05:57:58.971Z,18.60
2022-10-19T06:02:01.661Z,22.27
2022-10-19T06:06:06.019Z,19.73
2022-10-19T06:10:10.921Z,23.38
2022-10-19T06:14:16.431Z,23.45
2022-10-19T06:18:19.214Z,26.92
2022-10-19T06:22:21.995Z,24.98
2022-10-19T06:26:27.151Z,24.88
2022-10-19T06:30:30.236Z,21.77
2022-10-19T06:34:33.116Z,19.73
2022-10-19T06:38:35.946Z,19.75
2022-10-19T06:42:40.022Z,25.95
2022-10-19T06:46:42.820Z,22.70
2022-10-19T06:50:46.181Z,20.25
2022-10-19T06:54:49.159Z,23.60
2022-10-19T06:58:53.479Z,21.08
2022-10-19T07:02:56.346Z,28.02
2022-10-19T07:06:59.078Z,27.27
2022-10-19T07:11:03.493Z,20.77
2022-10-19T07:15:08.743Z,22.45
2022-10-19T07:19:11.649Z,21.85
2022-10-19T07:23:14.456Z,19.73
2022-10-19T07:27:17.194Z,21.58
2022-10-19T07:31:22.912Z,25.23
2022-10-19T07:35:25.678Z,23.50
2022-10-19T07:39:28.530Z,23.50
2022-10-19T07:43:31.294Z,26.20
2022-10-19T07:47:36.106Z,23.77
2022-10-19T07:51:39.647Z,21.60
2022-10-19T07:55:42.337Z,23.48
2022-10-19T07:59:45.029Z,31.27
2022-10-19T08:08:12.680Z,22.55
2022-10-19T08:12:17.666Z,26.08
2022-10-19T08:16:28.432Z,25.15
2022-10-19T08:20:32.511Z,25.30
2022-10-19T08:24:35.200Z,28.67
2022-10-19T08:28:37.894Z,22.98
2022-10-19T08:32:40.607Z,24.65
2022-10-19T08:36:44.797Z,28.15
2022-10-19T08:40:48.215Z,25.55
2022-10-19T08:45:06.291Z,27.27
2022-10-19T08:49:10.981Z,35.63
2022-10-19T08:53:19.310Z,25.98
2022-10-19T08:57:34.683Z,24.58
2022-10-19T09:01:43.075Z,25.00
2022-10-19T09:05:49.090Z,27.58
2022-10-19T09:09:58.249Z,27.08
2022-10-19T09:14:07.190Z,25.98
2022-10-19T09:18:11.806Z,26.13
2022-10-19T09:22:20.336Z,26.60
2022-10-19T09:26:29.595Z,27.60
2022-10-19T09:30:35.405Z,25.50
2022-10-19T09:34:42.677Z,26.17
2022-10-19T09:38:45.431Z,30.92
2022-10-19T09:42:56.648Z,27.45
2022-10-19T09:47:14.115Z,26.58
2022-10-19T09:51:18.619Z,23.30
2022-10-19T09:55:28.154Z,19.38
2022-10-19T09:59:35.954Z,24.23
2022-10-19T10:03:40.444Z,21.35
2022-10-19T10:07:43.530Z,22.45
2022-10-19T10:11:48.576Z,24.80
2022-10-19T10:15:57.468Z,27.88
2022-10-19T10:20:07.839Z,21.23
2022-10-19T10:24:18.719Z,22.92
2022-10-19T10:28:23.098Z,22.73
2022-10-19T10:32:28.586Z,23.67
2022-10-19T10:36:32.763Z,25.85
2022-10-19T10:40:36.106Z,17.92
2022-10-19T10:44:39.235Z,17.55
2022-10-19T10:48:47.683Z,16.98
2022-10-19T10:53:00.881Z,13.98
2022-10-19T10:57:13.005Z,18.02
2022-10-19T11:01:20.788Z,16.38
2022-10-19T11:05:27.524Z,14.20
2022-10-19T11:09:34.759Z,15.38
2022-10-19T11:13:43.421Z,11.90
2022-10-19T11:17:56.042Z,11.90
2022-10-19T11:22:09.214Z,11.80
2022-10-19T11:26:38.821Z,10.75
2022-10-19T11:30:54.031Z,10.90
2022-10-19T11:35:10.298Z,10.23
2022-10-19T11:39:32.923Z,11.57
2022-10-19T11:43:40.744Z,9.95
2022-10-19T11:48:00.131Z,12.60
2022-10-19T11:52:09.695Z,15.60
2022-10-19T11:56:20.651Z,17.20
2022-10-19T12:00:39.718Z,12.82
2022-10-19T12:04:49.749Z,15.70
2022-10-19T12:09:05.818Z,14.05
2022-10-19T12:13:15.360Z,13.13
2022-10-19T12:17:25.219Z,12.65
2022-10-19T12:21:31.415Z,10.70
2022-10-19T12:25:36.342Z,14.70
2022-10-19T12:29:43.737Z,9.77
2022-10-19T12:33:50.657Z,7.75
2022-10-19T12:37:59.889Z,10.30
2022-10-19T12:42:10.512Z,10.02
2022-10-19T12:46:27.087Z,5.60
2022-10-19T12:51:04.055Z,9.05
2022-10-19T12:55:24.511Z,10.75
2022-10-19T12:59:30.274Z,5.30
2022-10-19T13:03:36.165Z,7.22
2022-10-19T13:07:39.907Z,9.05
2022-10-19T13:12:44.690Z,6.22
2022-10-19T13:16:59.951Z,6.13
2022-10-19T13:21:03.698Z,6.60
2022-10-19T13:25:27.954Z,6.95
2022-10-19T13:29:41.361Z,8.95
2022-10-19T13:33:55.269Z,6.38
2022-10-19T13:38:27.365Z,13.10
2022-10-19T13:42:31.019Z,6.88
2022-10-19T13:46:54.006Z,8.75
2022-10-19T13:51:03.821Z,10.00
2022-10-19T13:55:45.216Z,8.60
2022-10-19T14:00:12.713Z,6.47
2022-10-19T14:04:22.497Z,6.38
2022-10-19T14:08:55.877Z,6.57
2022-10-19T14:12:59.257Z,5.82
2022-10-19T14:17:04.457Z,8.45
2022-10-19T14:21:09.750Z,6.15
2022-10-19T14:25:19.163Z,7.28
2022-10-19T14:29:22.055Z,4.22
2022-10-19T14:33:25.957Z,4.72
2022-10-19T14:37:28.863Z,12.70
2022-10-19T14:45:43.965Z,6.40
2022-10-19T14:49:46.797Z,7.70
2022-10-19T14:53:53.714Z,8.63
2022-10-19T14:57:58.116Z,5.97
2022-10-19T15:02:04.907Z,12.38
2022-10-19T15:06:08.316Z,9.70
2022-10-19T15:10:20.662Z,6.93
2022-10-19T15:14:29.122Z,7.90
2022-10-19T15:18:48.857Z,8.75
2022-10-19T15:22:53.120Z,6.85
2022-10-19T15:27:08.600Z,6.28
2022-10-19T15:31:19.347Z,7.68
2022-10-19T15:35:27.205Z,5.18
2022-10-19T15:39:38.075Z,9.88
2022-10-19T15:43:48.689Z,7.90
2022-10-19T15:48:25.342Z,9.82
2022-10-19T15:52:30.378Z,12.33
2022-10-19T15:56:35.578Z,8.98
2022-10-19T16:00:38.868Z,12.40
2022-10-19T16:04:42.956Z,9.82
2022-10-19T16:08:46.807Z,9.50
2022-10-19T16:12:49.642Z,9.80
2022-10-19T16:16:52.355Z,13.52
2022-10-19T16:20:56.462Z,11.10
2022-10-19T16:24:59.226Z,10.65
2022-10-19T16:29:02.677Z,8.25
2022-10-19T16:33:06.000Z,9.77
2022-10-19T16:37:10.046Z,11.60
2022-10-19T16:41:13.408Z,9.07
2022-10-19T16:45:16.169Z,8.93
2022-10-19T16:49:18.882Z,9.45
2022-10-19T16:53:23.090Z,9.50
2022-10-19T16:57:26.249Z,10.55
2022-10-19T17:01:30.009Z,8.77
2022-10-19T17:05:32.755Z,9.45
2022-10-19T17:09:41.856Z,13.73
2022-10-19T17:13:46.515Z,7.07
2022-10-19T17:17:49.344Z,9.52
2022-10-19T17:21:52.287Z,8.32
2022-10-19T17:25:56.356Z,11.10
2022-10-19T17:29:59.158Z,9.13
2022-10-19T17:34:02.659Z,8.68
2022-10-19T17:38:05.363Z,10.15
2022-10-19T17:42:09.507Z,11.27
2022-10-19T17:46:14.126Z,8.77
2022-10-19T17:50:16.909Z,16.05
2022-10-19T17:54:19.653Z,10.73
2022-10-19T17:58:23.777Z,10.80
2022-10-19T18:02:26.559Z,10.55
2022-10-19T18:06:31.728Z,12.10
2022-10-19T18:10:36.626Z,11.00
2022-10-19T18:14:40.858Z,11.50
2022-10-19T18:18:48.470Z,15.32
2022-10-19T18:22:51.185Z,9.80
2022-10-19T18:26:54.344Z,9.80
2022-10-19T18:31:05.822Z,9.27
2022-10-19T18:35:10.275Z,10.95
2022-10-19T18:39:14.874Z,14.07
2022-10-19T18:43:17.770Z,12.32
2022-10-19T18:47:21.914Z,12.90
2022-10-19T18:51:25.109Z,12.05
2022-10-19T18:55:27.797Z,11.13
2022-10-19T18:59:30.534Z,9.80
2022-10-19T19:03:35.344Z,13.98
2022-10-19T19:07:38.531Z,10.05
2022-10-19T19:11:41.706Z,14.00
2022-10-19T19:15:44.409Z,11.07
2022-10-19T19:19:48.478Z,11.48
2022-10-19T19:23:52.300Z,11.73
2022-10-19T19:27:55.028Z,11.65
2022-10-19T19:31:57.721Z,12.00
2022-10-19T19:36:05.941Z,12.65
2022-10-19T19:40:10.021Z,14.55
2022-10-19T19:44:12.729Z,12.75
2022-10-19T19:48:15.430Z,11.65
2022-10-19T19:52:19.838Z,11.20
2022-10-19T19:56:22.559Z,13.95
2022-10-19T20:00:25.850Z,18.92
2022-10-19T20:04:28.528Z,14.25
2022-10-19T20:08:33.010Z,11.68
2022-10-19T20:12:35.746Z,11.00
2022-10-19T20:16:38.439Z,9.73
2022-10-19T20:20:41.207Z,14.23
2022-10-19T20:24:45.291Z,15.38
2022-10-19T20:28:48.740Z,13.23
2022-10-19T20:32:54.395Z,11.93
2022-10-19T20:36:57.102Z,15.40
2022-10-19T20:41:07.797Z,12.38
2022-10-19T20:45:12.949Z,21.55
2022-10-19T20:49:15.667Z,15.23
2022-10-19T20:53:18.742Z,14.38
2022-10-19T20:57:22.819Z,13.75
2022-10-19T21:01:26.006Z,17.92
2022-10-19T21:05:28.734Z,11.63
2022-10-19T21:09:31.606Z,12.68
2022-10-19T21:13:35.673Z,12.45
2022-10-19T21:17:38.400Z,14.40
2022-10-19T21:21:43.260Z,11.98
2022-10-19T21:25:54.327Z,12.60
2022-10-19T21:29:58.387Z,18.42
2022-10-19T21:34:05.265Z,13.50
2022-10-19T21:38:07.993Z,17.73
2022-10-19T21:42:10.638Z,17.65
2022-10-19T21:46:16.835Z,13.55
2022-10-19T21:50:19.848Z,13.48
2022-10-19T21:54:24.582Z,13.98
2022-10-19T21:58:27.339Z,13.02
2022-10-19T22:02:31.398Z,13.90
2022-10-19T22:06:35.991Z,14.35
2022-10-19T22:10:38.971Z,15.60
2022-10-19T22:14:41.751Z,12.52
2022-10-19T22:18:46.588Z,12.23
2022-10-19T22:22:51.542Z,18.77
2022-10-19T22:26:56.889Z,23.73
2022-10-19T22:31:00.157Z,15.13
2022-10-19T22:35:05.441Z,18.48
2022-10-19T22:39:09.078Z,15.55
2022-10-19T22:43:11.803Z,20.42
2022-10-19T22:47:14.494Z,15.23
2022-10-19T22:51:18.542Z,15.80
2022-10-19T22:55:21.263Z,14.85
2022-10-19T22:59:23.995Z,18.90
2022-10-19T23:03:26.759Z,14.18
2022-10-19T23:07:30.847Z,18.98
2022-10-19T23:11:33.646Z,20.83
2022-10-19T23:15:39.283Z,16.02
2022-10-19T23:19:44.284Z,19.63
2022-10-19T23:23:48.370Z,16.92
2022-10-19T23:27:51.074Z,21.70
2022-10-19T23:31:53.784Z,20.95
2022-10-19T23:36:03.175Z,21.27
2022-10-19T23:40:08.577Z,22.45
2022-10-19T23:44:11.615Z,26.67
2022-10-19T23:48:14.321Z,32.45
2022-10-19T23:52:17.018Z,30.20
2022-10-19T23:56:22.914Z,34.45
